Time;durP1;ratioP1;P1;durP2;ratioP2;P2;SDS_P1;SDS_P2;PMS_P1;PMS_P2;Temp;Humidity;BMP_temperature;BMP_pressure;BME280_temperature;BME280_humidity;BME280_pressure;Samples;Min_cycle;Max_cycle;Signal;HPM_P1;HPM_P2
2021/05/06 00:02:01;;;;;;;60.15;7.18;;;18.00;99.90;;;;;;5065703;28;20446;-82
2021/05/06 00:34:15;;;;;;;43.58;5.95;;;18.90;99.90;;;;;;5060285;28;20413;-82
2021/05/06 00:36:42;;;;;;;45.28;6.57;;;18.80;99.90;;;;;;5059375;28;20402;-81
2021/05/06 00:39:14;;;;;;;39.78;5.88;;;18.70;99.90;;;;;;5069136;28;20894;-81
2021/05/06 00:57:45;;;;;;;32.65;5.18;;;19.00;99.90;;;;;;5061968;28;20410;-81
2021/05/06 01:05:32;;;;;;;31.15;4.82;;;18.90;99.90;;;;;;5057913;28;20401;-82
2021/05/06 01:11:00;;;;;;;27.38;4.53;;;18.80;99.90;;;;;;5048937;28;20433;-81
2021/05/06 01:13:30;;;;;;;27.55;4.75;;;18.80;99.90;;;;;;5051424;28;20399;-80
2021/05/06 01:15:58;;;;;;;31.52;4.95;;;18.90;99.90;;;;;;5055906;28;20401;-85
2021/05/06 01:18:25;;;;;;;32.23;4.50;;;18.90;99.90;;;;;;5058098;28;20910;-80
2021/05/06 01:21:01;;;;;;;36.10;4.97;;;18.90;99.90;;;;;;5064133;28;20532;-81
2021/05/06 01:23:30;;;;;;;26.70;4.40;;;18.90;99.90;;;;;;5056306;28;20475;-82
2021/05/06 01:26:03;;;;;;;36.60;5.20;;;18.80;99.90;;;;;;5065846;28;20892;-80
2021/05/06 01:28:39;;;;;;;31.65;4.82;;;18.80;99.90;;;;;;5064258;28;20429;-80
2021/05/06 01:31:13;;;;;;;30.13;5.00;;;18.80;99.90;;;;;;5064301;28;20425;-78
2021/05/06 01:33:46;;;;;;;30.85;5.20;;;18.80;99.90;;;;;;5063434;28;20498;-79
2021/05/06 01:36:26;;;;;;;38.70;6.18;;;18.80;99.90;;;;;;5069020;28;20410;-80
2021/05/06 01:44:42;;;;;;;29.50;4.80;;;18.90;99.90;;;;;;5055361;28;20472;-79
2021/05/06 01:47:04;;;;;;;35.13;5.97;;;18.90;99.90;;;;;;5064505;28;20409;-78
2021/05/06 02:00:43;;;;;;;33.03;5.70;;;19.00;99.90;;;;;;5063837;28;20389;-80
2021/05/06 02:03:10;;;;;;;39.80;6.13;;;19.10;99.90;;;;;;5071001;28;20386;-81
2021/05/06 02:05:37;;;;;;;30.58;5.45;;;19.00;99.90;;;;;;5063468;28;20385;-82
2021/05/06 02:08:04;;;;;;;37.80;6.00;;;18.90;99.90;;;;;;5057991;28;20383;-81
2021/05/06 02:10:31;;;;;;;38.72;5.85;;;18.90;99.90;;;;;;5074222;28;20448;-80
2021/05/06 02:12:59;;;;;;;33.83;5.63;;;18.90;99.90;;;;;;5060798;28;20411;-82
2021/05/06 02:15:47;;;;;;;35.83;6.20;;;18.90;99.90;;;;;;5105116;27;20751;-80
2021/05/06 02:18:16;;;;;;;38.88;6.95;;;18.90;99.90;;;;;;5075393;28;20783;-81
2021/05/06 02:20:45;;;;;;;31.25;5.25;;;18.90;99.90;;;;;;5066578;28;20388;-81
2021/05/06 02:23:12;;;;;;;37.60;6.50;;;18.90;99.90;;;;;;5070688;28;20396;-82
2021/05/06 02:25:39;;;;;;;38.92;6.65;;;19.00;99.90;;;;;;5066871;28;20388;-82
2021/05/06 02:28:06;;;;;;;36.10;6.18;;;19.00;99.90;;;;;;5064028;28;20413;-79
2021/05/06 02:30:34;;;;;;;37.55;5.97;;;19.00;99.90;;;;;;5069194;28;20408;-83
2021/05/06 02:33:04;;;;;;;32.67;5.95;;;19.10;99.90;;;;;;5072123;28;20384;-83
2021/05/06 02:35:30;;;;;;;33.25;5.53;;;19.20;99.90;;;;;;5065492;28;20386;-82
2021/05/06 02:37:57;;;;;;;35.35;5.55;;;19.20;99.90;;;;;;5071483;28;20872;-82
2021/05/06 02:40:25;;;;;;;34.63;6.07;;;19.20;99.90;;;;;;5068061;28;20443;-81
2021/05/06 02:42:52;;;;;;;32.30;5.38;;;19.20;99.90;;;;;;5073402;28;21143;-82
2021/05/06 02:45:18;;;;;;;30.42;5.05;;;19.30;99.90;;;;;;5070409;28;20390;-81
2021/05/06 02:47:45;;;;;;;30.95;4.93;;;19.30;99.90;;;;;;5071429;28;20378;-82
2021/05/06 02:50:16;;;;;;;30.42;4.68;;;19.30;99.90;;;;;;5071467;28;20414;-80
2021/05/06 02:55:21;;;;;;;31.33;5.85;;;19.10;99.90;;;;;;5068223;28;20421;-81
2021/05/06 02:57:54;;;;;;;34.53;5.38;;;19.10;99.90;;;;;;5054036;28;20391;-82
2021/05/06 03:03:07;;;;;;;28.23;5.13;;;19.10;99.90;;;;;;5065032;28;20481;-83
2021/05/06 03:05:37;;;;;;;30.70;5.70;;;19.00;99.90;;;;;;5105622;27;20906;-83
2021/05/06 03:08:09;;;;;;;30.20;5.50;;;19.00;99.90;;;;;;5074815;28;20384;-83
2021/05/06 03:24:01;;;;;;;25.52;4.28;;;19.10;99.90;;;;;;5056104;28;20396;-83
2021/05/06 03:26:31;;;;;;;23.60;4.13;;;19.10;99.90;;;;;;5070553;28;20390;-84
2021/05/06 03:29:05;;;;;;;20.25;3.88;;;19.20;99.90;;;;;;5064054;28;20402;-84
2021/05/06 03:42:21;;;;;;;27.52;4.57;;;19.60;99.90;;;;;;5069186;28;20385;-83
2021/05/06 04:25:45;;;;;;;21.38;3.63;;;18.60;99.90;;;;;;5064479;28;20410;-85
2021/05/06 04:36:18;;;;;;;23.10;4.00;;;18.70;99.90;;;;;;5066831;28;20436;-86
2021/05/06 04:38:45;;;;;;;22.52;4.07;;;18.80;99.90;;;;;;5063144;28;20853;-83
2021/05/06 04:54:32;;;;;;;34.97;5.65;;;19.00;99.90;;;;;;5057024;28;20452;-80
2021/05/06 05:04:45;;;;;;;34.05;5.57;;;18.90;99.90;;;;;;5054433;28;20792;-81
2021/05/06 05:09:56;;;;;;;35.47;5.65;;;18.90;99.90;;;;;;5064059;28;20401;-81
2021/05/06 05:27:59;;;;;;;36.83;6.47;;;18.80;99.90;;;;;;5069450;28;20744;-80
2021/05/06 05:30:28;;;;;;;44.35;7.45;;;18.80;99.90;;;;;;5066783;28;20463;-80
2021/05/06 05:32:56;;;;;;;42.00;7.18;;;18.80;99.90;;;;;;5068405;28;20388;-81
2021/05/06 05:36:12;;;;;;;40.60;5.78;;;18.80;99.90;;;;;;5055523;28;20528;-81
2021/05/06 05:54:34;;;;;;;40.60;6.70;;;18.90;99.90;;;;;;5069790;28;20397;-82
2021/05/06 05:56:30;;;;;;;41.42;7.45;;;18.90;99.90;;;;;;5061859;28;20878;-81
2021/05/06 05:58:57;;;;;;;38.88;7.28;;;18.90;99.90;;;;;;5066180;28;20819;-82
2021/05/06 06:01:24;;;;;;;36.33;6.53;;;18.90;99.90;;;;;;5057294;28;20405;-81
2021/05/06 06:03:51;;;;;;;43.97;7.07;;;18.90;99.90;;;;;;5066782;28;20903;-81
2021/05/06 06:06:18;;;;;;;39.50;6.63;;;18.90;99.90;;;;;;5058865;28;20400;-83
2021/05/06 06:08:45;;;;;;;39.42;6.28;;;19.00;99.90;;;;;;5063175;28;20955;-83
2021/05/06 06:11:13;;;;;;;29.05;6.40;;;19.00;99.90;;;;;;5066906;28;20441;-83
2021/05/06 06:13:40;;;;;;;33.42;5.97;;;19.00;99.90;;;;;;5054092;28;20386;-83
2021/05/06 06:16:22;;;;;;;35.35;6.20;;;19.00;99.90;;;;;;5069074;28;20382;-83
2021/05/06 06:18:53;;;;;;;37.50;6.75;;;18.90;99.90;;;;;;5051446;28;20392;-83
2021/05/06 06:21:44;;;;;;;40.08;6.75;;;18.90;99.90;;;;;;5059743;28;20428;-82
2021/05/06 06:24:11;;;;;;;34.13;7.55;;;18.80;99.90;;;;;;5067756;28;20381;-83
2021/05/06 06:26:39;;;;;;;36.47;6.20;;;18.80;99.90;;;;;;5061049;28;20394;-82
2021/05/06 06:29:09;;;;;;;34.72;6.18;;;18.90;99.90;;;;;;5069105;28;20499;-82
2021/05/06 06:31:40;;;;;;;34.50;6.20;;;18.90;99.90;;;;;;5059211;28;20394;-83
2021/05/06 06:34:08;;;;;;;38.50;6.75;;;18.80;99.90;;;;;;5067945;28;20466;-82
2021/05/06 06:36:36;;;;;;;37.13;8.32;;;18.80;99.90;;;;;;5065389;28;20760;-84
2021/05/06 06:39:04;;;;;;;35.28;6.38;;;18.60;99.90;;;;;;5050655;28;20375;-83
2021/05/06 06:41:31;;;;;;;35.42;6.57;;;18.60;99.90;;;;;;5065240;28;20390;-83
2021/05/06 06:44:01;;;;;;;37.10;6.65;;;18.50;99.90;;;;;;5070794;28;20354;-83
2021/05/06 06:46:28;;;;;;;37.92;6.63;;;18.40;99.90;;;;;;5063359;28;20440;-83
2021/05/06 06:48:55;;;;;;;36.95;6.32;;;18.40;99.90;;;;;;5068660;28;20407;-82
2021/05/06 06:51:22;;;;;;;42.05;7.28;;;18.30;99.90;;;;;;5068979;28;20412;-81
2021/05/06 06:53:50;;;;;;;39.60;7.57;;;18.30;99.90;;;;;;5071316;28;20387;-82
2021/05/06 06:56:17;;;;;;;36.45;6.30;;;18.30;99.90;;;;;;5065361;28;20404;-82
2021/05/06 06:58:49;;;;;;;42.80;6.93;;;18.30;99.90;;;;;;5068533;28;20753;-83
2021/05/06 07:01:16;;;;;;;40.92;7.18;;;18.30;99.90;;;;;;5060712;28;20945;-82
2021/05/06 07:03:44;;;;;;;38.15;6.38;;;18.20;99.90;;;;;;5068441;28;20394;-82
2021/05/06 07:06:11;;;;;;;37.17;6.63;;;18.20;99.90;;;;;;5066107;28;20395;-83
2021/05/06 07:08:42;;;;;;;38.93;6.37;;;18.20;99.90;;;;;;5071242;28;20382;-82
2021/05/06 07:11:09;;;;;;;40.13;6.05;;;18.20;99.90;;;;;;5068649;28;20409;-83
2021/05/06 07:13:36;;;;;;;47.20;15.45;;;18.20;99.90;;;;;;5077827;28;20382;-81
2021/05/06 07:16:08;;;;;;;42.53;6.40;;;18.10;99.90;;;;;;5069551;28;20453;-81
2021/05/06 07:18:36;;;;;;;43.53;7.43;;;18.10;99.90;;;;;;5074699;28;20380;-81
2021/05/06 07:21:05;;;;;;;38.70;6.47;;;18.10;99.90;;;;;;5076042;28;20487;-82
2021/05/06 07:23:34;;;;;;;84.65;47.65;;;18.10;99.90;;;;;;5056079;28;20501;-81
2021/05/06 07:26:02;;;;;;;49.88;13.55;;;18.10;99.90;;;;;;5067498;28;20397;-83
2021/05/06 07:28:34;;;;;;;26.73;5.38;;;18.10;99.90;;;;;;5068382;28;20386;-81
2021/05/06 07:31:03;;;;;;;63.67;31.05;;;18.10;99.90;;;;;;5072711;28;20401;-82
2021/05/06 07:33:34;;;;;;;53.67;21.52;;;18.10;99.90;;;;;;5069245;28;20366;-83
2021/05/06 07:36:02;;;;;;;36.17;9.02;;;18.00;99.90;;;;;;5068913;28;20378;-83
2021/05/06 07:38:31;;;;;;;42.45;14.20;;;18.00;99.90;;;;;;5069945;28;20830;-83
2021/05/06 07:41:00;;;;;;;36.85;10.20;;;18.00;99.90;;;;;;5068227;28;20394;-83
2021/05/06 07:43:31;;;;;;;36.60;8.10;;;18.00;99.90;;;;;;5064958;28;20468;-83
2021/05/06 07:45:59;;;;;;;33.27;5.30;;;18.00;99.90;;;;;;5067085;28;20389;-82
2021/05/06 07:48:27;;;;;;;35.15;5.47;;;18.00;99.90;;;;;;5066673;28;20413;-83
2021/05/06 07:50:55;;;;;;;30.77;6.60;;;17.90;99.90;;;;;;5088241;27;20426;-83
2021/05/06 07:53:37;;;;;;;40.40;12.97;;;17.90;99.90;;;;;;5061153;28;20970;-84
2021/05/06 07:56:04;;;;;;;30.60;5.63;;;17.90;99.90;;;;;;5048425;28;20500;-82
2021/05/06 07:58:31;;;;;;;28.25;5.10;;;17.90;99.90;;;;;;5064430;28;20837;-82
2021/05/06 08:00:58;;;;;;;31.08;5.18;;;17.90;99.90;;;;;;5070150;28;20389;-83
2021/05/06 08:03:25;;;;;;;35.70;5.13;;;17.90;99.90;;;;;;5066192;28;20469;-82
2021/05/06 08:05:56;;;;;;;26.92;4.90;;;18.00;99.90;;;;;;5060561;28;20887;-85
2021/05/06 08:08:25;;;;;;;38.70;5.35;;;18.00;99.90;;;;;;5057452;28;20388;-83
2021/05/06 08:10:56;;;;;;;32.75;5.30;;;18.00;99.90;;;;;;5052062;28;20502;-83
2021/05/06 08:13:28;;;;;;;36.20;5.72;;;18.00;99.90;;;;;;5058824;28;20437;-84
2021/05/06 08:15:56;;;;;;;33.25;5.72;;;18.00;99.90;;;;;;5057509;28;20382;-81
2021/05/06 08:18:24;;;;;;;34.95;6.75;;;18.00;99.90;;;;;;5078534;28;20857;-83
2021/05/06 08:20:51;;;;;;;36.85;6.82;;;18.00;99.90;;;;;;5089321;28;20438;-86
2021/05/06 08:23:18;;;;;;;31.95;6.30;;;17.90;99.90;;;;;;5066073;28;20761;-85
2021/05/06 08:25:46;;;;;;;33.92;6.13;;;18.00;99.90;;;;;;5086325;28;20372;-85
2021/05/06 08:28:12;;;;;;;36.90;5.68;;;18.00;99.90;;;;;;5062325;28;20565;-83
2021/05/06 08:30:39;;;;;;;40.30;5.82;;;18.00;99.90;;;;;;5067297;28;20453;-82
2021/05/06 08:33:07;;;;;;;36.67;5.75;;;18.00;99.90;;;;;;5049385;28;20388;-83
2021/05/06 08:35:33;;;;;;;32.20;5.80;;;18.00;99.90;;;;;;5051449;28;20415;-83
2021/05/06 08:38:00;;;;;;;34.53;6.07;;;18.00;99.90;;;;;;5085710;27;20728;-84
2021/05/06 08:40:27;;;;;;;45.22;6.68;;;18.00;99.90;;;;;;5057564;28;21126;-83
2021/05/06 08:42:55;;;;;;;38.05;5.97;;;18.00;99.90;;;;;;5054364;28;20396;-82
2021/05/06 08:45:26;;;;;;;37.97;6.03;;;18.00;99.90;;;;;;5079751;28;20820;-83
2021/05/06 08:50:55;;;;;;;60.50;26.10;;;18.00;99.90;;;;;;5048377;28;20439;-83
2021/05/06 08:53:23;;;;;;;53.00;22.40;;;18.00;99.90;;;;;;5055244;28;20410;-83
2021/05/06 08:55:56;;;;;;;49.53;19.97;;;17.90;99.90;;;;;;5069137;28;20405;-83
2021/05/06 08:58:23;;;;;;;35.22;11.00;;;18.00;99.90;;;;;;5069678;28;20390;-83
2021/05/06 09:00:51;;;;;;;39.53;10.60;;;18.00;99.90;;;;;;5071997;28;20458;-83
2021/05/06 09:03:21;;;;;;;29.33;6.65;;;17.90;99.90;;;;;;5073334;28;20440;-84
2021/05/06 09:06:15;;;;;;;38.78;6.40;;;17.90;99.90;;;;;;5071850;28;20386;-82
2021/05/06 09:08:52;;;;;;;47.83;7.30;;;17.80;99.90;;;;;;5063132;28;20394;-83
2021/05/06 09:11:29;;;;;;;33.80;6.65;;;17.80;99.90;;;;;;5096674;28;20950;-83
2021/05/06 09:14:07;;;;;;;37.72;6.32;;;17.70;99.90;;;;;;5048911;28;20409;-83
2021/05/06 09:16:39;;;;;;;28.45;6.20;;;17.70;99.90;;;;;;5063429;28;20405;-83
2021/05/06 09:19:14;;;;;;;30.35;6.97;;;17.70;99.90;;;;;;5052296;28;20378;-83
2021/05/06 09:21:44;;;;;;;33.95;7.07;;;17.60;99.90;;;;;;5057387;28;20872;-84
2021/05/06 09:24:25;;;;;;;36.67;7.53;;;17.60;99.90;;;;;;5056140;28;20391;-83
2021/05/06 09:26:59;;;;;;;29.67;7.10;;;17.60;99.90;;;;;;5054013;28;20399;-82
2021/05/06 09:29:35;;;;;;;32.40;6.93;;;17.60;99.90;;;;;;5095873;28;20397;-86
2021/05/06 09:32:14;;;;;;;34.60;7.18;;;17.60;99.90;;;;;;5068450;28;20485;-87
2021/05/06 09:34:43;;;;;;;32.60;7.22;;;17.60;99.90;;;;;;5066688;28;20382;-88
2021/05/06 09:37:31;;;;;;;34.65;7.20;;;17.60;99.90;;;;;;5063030;28;20396;-88
2021/05/06 09:39:59;;;;;;;31.25;7.00;;;17.60;99.90;;;;;;5088189;28;20398;-86
2021/05/06 09:42:45;;;;;;;34.47;6.88;;;17.60;99.90;;;;;;5067943;28;20730;-86
2021/05/06 09:45:25;;;;;;;37.28;7.32;;;17.60;99.90;;;;;;5066425;28;20769;-86
2021/05/06 09:48:13;;;;;;;41.05;7.07;;;17.60;99.90;;;;;;5073284;28;20378;-85
2021/05/06 09:50:42;;;;;;;40.50;7.70;;;17.70;99.90;;;;;;5070146;28;20468;-86
2021/05/06 09:53:23;;;;;;;43.13;7.70;;;17.70;99.90;;;;;;5059597;28;20415;-86
2021/05/06 09:55:54;;;;;;;47.13;11.40;;;17.70;99.90;;;;;;5067678;28;20486;-86
2021/05/06 09:58:33;;;;;;;74.28;12.93;;;17.70;99.90;;;;;;5058799;28;20398;-86
2021/05/06 10:01:11;;;;;;;50.50;10.63;;;17.80;99.90;;;;;;5068233;28;20382;-85
2021/05/06 10:03:38;;;;;;;48.53;11.65;;;17.80;99.90;;;;;;5067457;28;20436;-85
2021/05/06 10:06:30;;;;;;;54.92;10.30;;;17.90;99.90;;;;;;5067167;28;20397;-85
2021/05/06 10:09:03;;;;;;;46.00;8.43;;;17.80;99.90;;;;;;5065015;28;20523;-85
2021/05/06 10:11:30;;;;;;;54.33;9.57;;;17.80;99.90;;;;;;5068331;28;20475;-84
2021/05/06 10:13:59;;;;;;;64.15;9.32;;;17.80;99.90;;;;;;5072727;28;20385;-84
2021/05/06 10:16:27;;;;;;;46.90;8.63;;;17.80;99.90;;;;;;5071998;28;20455;-85
2021/05/06 10:18:56;;;;;;;38.60;9.40;;;17.90;99.90;;;;;;5072013;28;20363;-84
2021/05/06 10:21:23;;;;;;;41.42;9.32;;;17.90;99.90;;;;;;5071298;28;20405;-84
2021/05/06 10:23:55;;;;;;;38.95;8.73;;;17.90;99.90;;;;;;5072040;28;20418;-84
2021/05/06 10:26:26;;;;;;;37.33;8.60;;;17.90;99.90;;;;;;5072324;28;20390;-85
2021/05/06 10:28:53;;;;;;;46.85;9.45;;;17.90;99.90;;;;;;5070072;28;20413;-85
2021/05/06 10:31:20;;;;;;;44.30;9.37;;;17.90;99.90;;;;;;5071759;28;20398;-85
2021/05/06 10:33:48;;;;;;;43.38;9.00;;;17.90;99.90;;;;;;5069158;28;20386;-85
2021/05/06 10:36:15;;;;;;;43.03;9.35;;;17.90;99.90;;;;;;5066445;28;20401;-84
2021/05/06 10:38:44;;;;;;;42.22;8.88;;;17.90;99.90;;;;;;5058546;28;20476;-84
2021/05/06 10:41:34;;;;;;;39.92;9.95;;;17.90;99.90;;;;;;5069034;28;20488;-85
2021/05/06 10:44:07;;;;;;;46.08;10.68;;;17.90;99.90;;;;;;5083771;28;20381;-85
2021/05/06 10:46:59;;;;;;;48.55;9.48;;;17.80;99.90;;;;;;5073046;28;20394;-85
2021/05/06 10:49:31;;;;;;;57.13;9.50;;;17.80;99.90;;;;;;5069474;28;20526;-85
2021/05/06 10:52:06;;;;;;;53.30;8.55;;;17.80;99.90;;;;;;5066479;28;20396;-85
2021/05/06 10:54:39;;;;;;;49.03;7.70;;;17.80;99.90;;;;;;5075119;28;20373;-85
2021/05/06 10:57:14;;;;;;;43.70;7.60;;;17.80;99.90;;;;;;5085854;28;20385;-85
2021/05/06 10:59:43;;;;;;;49.88;8.13;;;17.80;99.90;;;;;;5074630;28;20383;-84
2021/05/06 11:02:11;;;;;;;36.65;8.20;;;17.80;99.90;;;;;;5072040;28;20458;-84
2021/05/06 11:04:41;;;;;;;43.90;9.77;;;17.80;99.90;;;;;;5070588;28;21112;-84
2021/05/06 11:07:18;;;;;;;40.58;8.50;;;17.80;99.90;;;;;;5073176;28;20386;-85
2021/05/06 11:09:49;;;;;;;43.35;8.25;;;17.80;99.90;;;;;;5072647;28;20398;-84
2021/05/06 11:12:17;;;;;;;41.42;7.35;;;17.70;99.90;;;;;;5058798;28;20492;-85
2021/05/06 11:15:10;;;;;;;39.67;7.18;;;17.70;99.90;;;;;;5069695;28;20378;-84
2021/05/06 11:17:43;;;;;;;40.47;8.10;;;17.70;99.90;;;;;;5053470;28;20402;-87
2021/05/06 11:20:13;;;;;;;50.60;7.38;;;17.80;99.90;;;;;;5062029;28;20501;-83
2021/05/06 11:22:46;;;;;;;47.03;7.50;;;17.80;99.90;;;;;;5067383;28;20816;-85
2021/05/06 11:28:20;;;;;;;43.92;6.80;;;17.80;99.90;;;;;;5068081;28;20892;-84
2021/05/06 11:30:49;;;;;;;41.95;6.50;;;17.90;99.90;;;;;;5100178;27;20894;-85
2021/05/06 11:33:24;;;;;;;43.17;6.20;;;17.80;99.90;;;;;;5067632;28;20402;-84
2021/05/06 11:36:11;;;;;;;49.35;6.35;;;17.80;99.90;;;;;;5068949;28;20432;-85
2021/05/06 11:38:38;;;;;;;43.72;6.38;;;17.80;99.90;;;;;;5070087;28;20409;-84
2021/05/06 11:41:17;;;;;;;50.53;8.10;;;17.80;99.90;;;;;;5088596;28;20887;-84
2021/05/06 11:43:51;;;;;;;41.08;7.47;;;17.80;99.90;;;;;;5090450;28;20761;-83
2021/05/06 11:46:24;;;;;;;51.50;8.60;;;17.80;99.90;;;;;;5068187;28;20386;-83
2021/05/06 11:48:58;;;;;;;53.22;7.60;;;17.80;99.90;;;;;;5059694;28;20755;-84
2021/05/06 11:51:27;;;;;;;60.90;8.60;;;17.80;99.90;;;;;;5059367;28;20445;-83
2021/05/06 11:54:15;;;;;;;41.92;7.13;;;17.80;99.90;;;;;;5053855;28;20426;-83
2021/05/06 11:56:55;;;;;;;45.08;6.82;;;17.90;99.90;;;;;;5056515;28;20957;-83
2021/05/06 11:59:24;;;;;;;40.72;6.20;;;17.90;99.90;;;;;;5068377;28;20909;-83
2021/05/06 12:01:52;;;;;;;39.20;6.13;;;17.90;99.90;;;;;;5066972;28;20765;-85
2021/05/06 12:04:27;;;;;;;44.97;7.05;;;17.90;99.90;;;;;;5070736;28;20400;-84
2021/05/06 12:06:55;;;;;;;47.38;6.43;;;17.80;99.90;;;;;;5065263;28;20395;-85
2021/05/06 12:09:24;;;;;;;44.75;7.65;;;17.80;99.90;;;;;;5069020;28;20394;-85
2021/05/06 12:11:53;;;;;;;45.92;7.05;;;17.80;99.90;;;;;;5067897;28;20409;-85
2021/05/06 12:14:35;;;;;;;44.92;7.85;;;17.80;99.90;;;;;;5082355;28;20423;-84
2021/05/06 12:17:03;;;;;;;48.78;7.85;;;17.80;99.90;;;;;;5084423;28;20389;-83
2021/05/06 12:19:31;;;;;;;43.00;7.57;;;17.90;99.90;;;;;;5074327;28;20756;-83
2021/05/06 12:21:59;;;;;;;40.58;7.30;;;17.90;99.90;;;;;;5053670;28;20392;-83
2021/05/06 12:24:41;;;;;;;36.50;6.15;;;17.90;99.90;;;;;;5100339;28;20490;-84
2021/05/06 12:27:18;;;;;;;37.92;6.22;;;18.00;99.90;;;;;;5070929;28;20382;-84
2021/05/06 12:29:48;;;;;;;41.15;6.75;;;18.00;99.90;;;;;;5067356;28;20413;-83
2021/05/06 12:32:23;;;;;;;45.23;6.87;;;18.00;99.90;;;;;;5069870;28;20394;-85
2021/05/06 12:34:52;;;;;;;38.60;6.60;;;17.90;99.90;;;;;;5062839;28;20390;-93
2021/05/06 12:37:22;;;;;;;44.13;6.43;;;17.90;99.90;;;;;;5065926;28;20465;-91
2021/05/06 12:39:49;;;;;;;41.67;5.72;;;17.90;99.90;;;;;;5069473;28;20543;-88
2021/05/06 12:42:25;;;;;;;36.83;5.30;;;17.90;99.90;;;;;;5077211;28;20397;-87
2021/05/06 12:44:53;;;;;;;43.00;7.05;;;17.90;99.90;;;;;;5073307;28;20966;-84
2021/05/06 12:47:27;;;;;;;33.70;5.95;;;17.90;99.90;;;;;;5069090;28;20390;-85
2021/05/06 12:50:13;;;;;;;33.83;6.00;;;17.90;99.90;;;;;;5068902;28;20467;-84
2021/05/06 12:52:50;;;;;;;29.63;5.30;;;17.90;99.90;;;;;;5056623;28;20574;-86
2021/05/06 12:55:18;;;;;;;31.98;5.30;;;17.90;99.90;;;;;;5059722;28;20432;-87
2021/05/06 12:58:02;;;;;;;28.42;4.88;;;17.80;99.90;;;;;;5064843;28;20455;-86
2021/05/06 13:00:32;;;;;;;28.00;4.18;;;17.80;99.90;;;;;;5067865;28;20378;-83
2021/05/06 13:03:08;;;;;;;40.67;4.45;;;17.80;99.90;;;;;;5068132;28;20402;-81
2021/05/06 13:05:39;;;;;;;17.92;3.58;;;17.70;99.90;;;;;;5067764;28;20448;-86
2021/05/06 13:08:06;;;;;;;15.57;2.97;;;17.70;99.90;;;;;;5093858;28;20423;-86
2021/05/06 13:11:00;;;;;;;14.60;2.50;;;17.70;99.90;;;;;;5064169;28;20473;-86
2021/05/06 13:13:48;;;;;;;11.13;2.63;;;17.70;99.90;;;;;;5064160;28;20370;-87
2021/05/06 13:16:17;;;;;;;15.03;2.87;;;17.70;99.90;;;;;;5053358;28;20404;-87
2021/05/06 13:19:00;;;;;;;17.75;3.30;;;17.70;99.90;;;;;;5065493;28;20475;-87
2021/05/06 13:21:27;;;;;;;23.70;3.63;;;17.70;99.90;;;;;;5069244;28;20865;-88
2021/05/06 13:23:55;;;;;;;20.33;3.70;;;17.70;99.90;;;;;;5062636;28;20414;-89
2021/05/06 13:26:32;;;;;;;25.70;3.95;;;17.70;99.90;;;;;;5062011;28;20553;-87
2021/05/06 13:29:06;;;;;;;25.85;4.05;;;17.70;99.90;;;;;;5067060;28;20404;-85
2021/05/06 13:31:36;;;;;;;22.73;3.63;;;17.70;99.90;;;;;;5056469;28;20436;-88
2021/05/06 13:34:15;;;;;;;26.67;4.20;;;17.70;99.90;;;;;;5069050;28;20861;-86
2021/05/06 13:36:44;;;;;;;22.70;3.37;;;17.70;99.90;;;;;;5066825;28;20405;-86
2021/05/06 13:39:13;;;;;;;23.80;3.55;;;17.70;99.90;;;;;;5055712;28;20448;-86
2021/05/06 13:41:44;;;;;;;23.30;3.58;;;17.70;99.90;;;;;;5053316;28;20400;-85
2021/05/06 13:44:15;;;;;;;26.20;3.92;;;17.70;99.90;;;;;;5070297;28;20962;-86
2021/05/06 13:46:54;;;;;;;24.42;3.60;;;17.80;99.90;;;;;;5068759;28;20378;-88
2021/05/06 13:49:24;;;;;;;25.15;3.80;;;17.70;99.90;;;;;;5067347;28;20405;-89
2021/05/06 13:51:52;;;;;;;19.75;3.40;;;17.80;99.90;;;;;;5072170;28;20397;-87
2021/05/06 13:54:21;;;;;;;26.50;3.72;;;17.80;99.90;;;;;;5071007;28;20806;-88
2021/05/06 13:56:49;;;;;;;38.00;4.20;;;17.80;99.90;;;;;;5068080;28;20392;-87
2021/05/06 13:59:16;;;;;;;32.47;4.28;;;17.80;99.90;;;;;;5083838;28;20441;-89
2021/05/06 14:01:45;;;;;;;31.85;4.10;;;17.80;99.90;;;;;;5077275;28;20751;-91
2021/05/06 14:04:11;;;;;;;29.90;4.13;;;17.80;99.90;;;;;;5093002;28;20837;-86
2021/05/06 14:06:38;;;;;;;17.03;3.20;;;17.80;99.90;;;;;;5068563;28;20401;-84
2021/05/06 14:09:06;;;;;;;25.00;3.23;;;17.80;99.90;;;;;;5071831;28;20399;-83
2021/05/06 14:11:34;;;;;;;20.42;3.80;;;17.80;99.90;;;;;;5090994;28;20883;-86
2021/05/06 14:14:00;;;;;;;29.98;4.97;;;17.80;99.90;;;;;;5066745;28;20386;-85
2021/05/06 14:16:27;;;;;;;28.38;4.32;;;17.70;99.90;;;;;;5071416;28;20406;-86
2021/05/06 14:18:54;;;;;;;32.65;4.60;;;17.70;99.90;;;;;;5069713;28;20390;-85
2021/05/06 14:21:23;;;;;;;31.52;4.00;;;17.60;99.90;;;;;;5069968;28;20394;-87
2021/05/06 14:23:51;;;;;;;31.45;4.50;;;17.60;99.90;;;;;;5079046;28;20866;-84
2021/05/06 14:26:19;;;;;;;31.27;4.70;;;17.60;99.90;;;;;;5070041;28;20757;-85
2021/05/06 14:28:46;;;;;;;29.88;4.20;;;17.70;99.90;;;;;;5070099;28;20483;-83
2021/05/06 14:31:14;;;;;;;59.27;5.33;;;17.60;99.90;;;;;;5069916;28;20429;-85
2021/05/06 14:33:41;;;;;;;31.25;4.13;;;17.60;99.90;;;;;;5070920;28;20460;-84
2021/05/06 14:36:09;;;;;;;104.20;5.70;;;17.50;99.90;;;;;;5067810;28;20429;-87
2021/05/06 14:38:37;;;;;;;42.30;4.70;;;17.50;99.90;;;;;;5071140;28;20398;-86
2021/05/06 14:41:06;;;;;;;83.90;5.10;;;17.50;99.90;;;;;;5083206;28;20808;-84
2021/05/06 14:43:33;;;;;;;36.80;4.57;;;17.50;99.90;;;;;;5075551;28;20442;-85
2021/05/06 14:46:01;;;;;;;31.77;4.55;;;17.50;99.90;;;;;;5062110;28;20891;-86
2021/05/06 14:48:29;;;;;;;30.05;4.63;;;17.50;99.90;;;;;;5069471;28;20371;-85
2021/05/06 14:50:57;;;;;;;33.72;4.82;;;17.50;99.90;;;;;;5072321;28;20509;-85
2021/05/06 14:53:24;;;;;;;34.83;4.60;;;17.50;99.90;;;;;;5061602;28;20447;-85
2021/05/06 14:55:52;;;;;;;48.22;5.22;;;17.50;99.90;;;;;;5069057;28;20404;-84
2021/05/06 14:58:19;;;;;;;39.25;5.03;;;17.50;99.90;;;;;;5067271;28;20419;-87
2021/05/06 15:00:46;;;;;;;38.33;5.45;;;17.50;99.90;;;;;;5088117;27;20431;-87
2021/05/06 15:03:13;;;;;;;33.65;5.60;;;17.50;99.90;;;;;;5070908;28;20381;-85
2021/05/06 15:05:42;;;;;;;41.30;5.90;;;17.50;99.90;;;;;;5058637;28;20437;-82
2021/05/06 15:08:09;;;;;;;23.08;4.25;;;17.50;99.90;;;;;;5069558;28;20409;-82
2021/05/06 15:10:36;;;;;;;18.17;3.00;;;17.50;99.90;;;;;;5062721;28;20418;-81
2021/05/06 15:13:03;;;;;;;12.10;2.88;;;17.60;99.90;;;;;;5071149;28;20394;-84
2021/05/06 15:15:30;;;;;;;18.80;3.28;;;17.60;99.90;;;;;;5069410;28;20476;-84
2021/05/06 15:17:59;;;;;;;19.10;3.67;;;17.60;99.90;;;;;;5070944;28;20374;-83
2021/05/06 15:20:26;;;;;;;30.77;4.65;;;17.60;99.90;;;;;;5069882;28;20401;-84
2021/05/06 15:22:54;;;;;;;36.03;5.47;;;17.70;99.90;;;;;;5073009;28;20489;-83
2021/05/06 15:25:21;;;;;;;40.85;5.78;;;17.60;99.90;;;;;;5064515;28;20903;-82
2021/05/06 15:27:49;;;;;;;46.72;6.47;;;17.70;99.90;;;;;;5069157;28;20378;-84
2021/05/06 15:30:18;;;;;;;48.28;6.13;;;17.70;99.90;;;;;;5070043;28;20397;-86
2021/05/06 15:32:45;;;;;;;56.30;6.47;;;17.70;99.90;;;;;;5069358;28;20457;-85
2021/05/06 15:35:13;;;;;;;42.00;5.72;;;17.70;99.90;;;;;;5070704;28;20378;-87
2021/05/06 15:37:40;;;;;;;47.38;5.32;;;17.70;99.90;;;;;;5063078;28;20478;-88
2021/05/06 15:40:10;;;;;;;48.33;5.70;;;17.70;99.90;;;;;;5078762;28;20578;-87
2021/05/06 15:42:39;;;;;;;41.10;5.47;;;17.70;99.90;;;;;;5076942;28;20413;-88
2021/05/06 15:45:09;;;;;;;41.58;5.53;;;17.70;99.90;;;;;;5064539;28;20422;-85
2021/05/06 15:47:37;;;;;;;44.42;5.28;;;17.70;99.90;;;;;;5050079;28;20376;-87
2021/05/06 15:50:06;;;;;;;30.35;4.78;;;17.70;99.90;;;;;;5062670;28;20829;-85
2021/05/06 15:52:34;;;;;;;67.03;4.88;;;17.70;99.90;;;;;;5063873;28;20391;-86
2021/05/06 15:55:01;;;;;;;41.30;4.40;;;17.70;99.90;;;;;;5068079;28;20438;-86
2021/05/06 15:57:28;;;;;;;25.55;4.30;;;17.80;99.90;;;;;;5075652;28;20380;-86
2021/05/06 15:59:55;;;;;;;44.47;4.43;;;17.80;99.90;;;;;;5073396;28;20413;-83
2021/05/06 16:02:24;;;;;;;35.30;4.78;;;17.70;99.90;;;;;;5062100;28;20395;-84
2021/05/06 16:04:51;;;;;;;29.88;4.82;;;17.70;99.90;;;;;;5053786;28;20394;-85
2021/05/06 16:07:19;;;;;;;30.00;4.93;;;17.70;99.90;;;;;;5065436;28;20431;-83
2021/05/06 16:09:46;;;;;;;37.93;4.90;;;17.70;99.90;;;;;;5058226;28;20429;-84
2021/05/06 16:12:13;;;;;;;43.80;5.17;;;17.70;99.90;;;;;;5064240;28;20398;-84
2021/05/06 16:14:40;;;;;;;45.13;5.55;;;17.60;99.90;;;;;;5072218;28;20394;-87
2021/05/06 16:17:07;;;;;;;54.58;6.35;;;17.60;99.90;;;;;;5072678;28;20382;-87
2021/05/06 16:19:34;;;;;;;68.70;5.85;;;17.60;99.90;;;;;;5067620;28;20392;-87
2021/05/06 16:22:02;;;;;;;52.65;5.32;;;17.60;99.90;;;;;;5068115;28;20382;-86
2021/05/06 16:24:29;;;;;;;45.58;5.18;;;17.60;99.90;;;;;;5072033;28;20396;-84